sensor_id;sensor_type;location;lat;lon;timestamp;pressure;altitude;pressure_sealevel;temperature;humidity
84853;BME280;75109;47.440;19.310;2024-01-30T00:00:31;102309.50;;;1.08;75.40
84853;BME280;75109;47.440;19.310;2024-01-30T00:01:03;102309.75;;;1.06;75.62
84853;BME280;75109;47.440;19.310;2024-01-30T00:01:36;102304.25;;;1.06;75.62
84853;BME280;75109;47.440;19.310;2024-01-30T00:02:08;102312.50;;;1.06;75.19
84853;BME280;75109;47.440;19.310;2024-01-30T00:02:40;102319.66;;;1.07;75.49
84853;BME280;75109;47.440;19.310;2024-01-30T00:03:12;102316.91;;;1.07;75.39
84853;BME280;75109;47.440;19.310;2024-01-30T00:03:44;102316.28;;;1.05;75.44
84853;BME280;75109;47.440;19.310;2024-01-30T00:04:16;102312.91;;;1.03;75.34
84853;BME280;75109;47.440;19.310;2024-01-30T00:04:49;102317.59;;;1.03;75.65
84853;BME280;75109;47.440;19.310;2024-01-30T00:05:21;102318.41;;;1.03;75.62
84853;BME280;75109;47.440;19.310;2024-01-30T00:05:53;102318.19;;;1.05;75.47
84853;BME280;75109;47.440;19.310;2024-01-30T00:06:26;102311.88;;;1.04;75.56
84853;BME280;75109;47.440;19.310;2024-01-30T00:06:58;102316.28;;;1.05;75.34
84853;BME280;75109;47.440;19.310;2024-01-30T00:07:30;102311.63;;;1.06;75.37
84853;BME280;75109;47.440;19.310;2024-01-30T00:08:02;102314.38;;;1.06;75.27
84853;BME280;75109;47.440;19.310;2024-01-30T00:08:35;102311.63;;;1.06;75.12
84853;BME280;75109;47.440;19.310;2024-01-30T00:09:07;102315.44;;;1.05;75.24
84853;BME280;75109;47.440;19.310;2024-01-30T00:09:39;102317.38;;;1.04;75.27
84853;BME280;75109;47.440;19.310;2024-01-30T00:10:11;102315.44;;;1.05;75.32
84853;BME280;75109;47.440;19.310;2024-01-30T00:10:44;102324.53;;;1.05;75.54
84853;BME280;75109;47.440;19.310;2024-01-30T00:11:18;102313.53;;;1.05;75.50
84853;BME280;75109;47.440;19.310;2024-01-30T00:11:51;102317.97;;;1.06;75.46
84853;BME280;75109;47.440;19.310;2024-01-30T00:12:23;102311.41;;;1.07;75.34
84853;BME280;75109;47.440;19.310;2024-01-30T00:12:55;102310.34;;;1.08;75.62
84853;BME280;75109;47.440;19.310;2024-01-30T00:13:27;102316.91;;;1.07;75.33
84853;BME280;75109;47.440;19.310;2024-01-30T00:13:59;102318.81;;;1.07;75.57
84853;BME280;75109;47.440;19.310;2024-01-30T00:14:31;102315.44;;;1.05;75.49
84853;BME280;75109;47.440;19.310;2024-01-30T00:15:04;102311.03;;;1.04;75.83
84853;BME280;75109;47.440;19.310;2024-01-30T00:15:36;102316.28;;;1.05;75.67
84853;BME280;75109;47.440;19.310;2024-01-30T00:16:19;102318.19;;;1.05;75.56
84853;BME280;75109;47.440;19.310;2024-01-30T00:16:51;102311.50;;;1.01;75.57
84853;BME280;75109;47.440;19.310;2024-01-30T00:17:23;102308.94;;;0.99;75.57
84853;BME280;75109;47.440;19.310;2024-01-30T00:17:57;102318.25;;;0.98;75.79
84853;BME280;75109;47.440;19.310;2024-01-30T00:18:29;102316.56;;;0.97;75.72
84853;BME280;75109;47.440;19.310;2024-01-30T00:19:01;102308.56;;;0.96;75.73
84853;BME280;75109;47.440;19.310;2024-01-30T00:19:34;102305.56;;;0.97;75.68
84853;BME280;75109;47.440;19.310;2024-01-30T00:20:06;102316.81;;;0.96;75.75
84853;BME280;75109;47.440;19.310;2024-01-30T00:20:40;102310.47;;;0.95;75.46
84853;BME280;75109;47.440;19.310;2024-01-30T00:21:12;102317.66;;;0.96;75.52
84853;BME280;75109;47.440;19.310;2024-01-30T00:21:44;102311.53;;;0.94;75.46
84853;BME280;75109;47.440;19.310;2024-01-30T00:22:17;102310.69;;;0.93;75.59
84853;BME280;75109;47.440;19.310;2024-01-30T00:22:49;102317.03;;;0.94;75.49
84853;BME280;75109;47.440;19.310;2024-01-30T00:23:21;102318.69;;;0.95;75.54
84853;BME280;75109;47.440;19.310;2024-01-30T00:23:53;102314.28;;;0.94;75.36
84853;BME280;75109;47.440;19.310;2024-01-30T00:24:25;102318.31;;;0.91;75.45
84853;BME280;75109;47.440;19.310;2024-01-30T00:24:57;102320.81;;;0.93;75.50
84853;BME280;75109;47.440;19.310;2024-01-30T00:25:29;102310.31;;;0.90;75.53
84853;BME280;75109;47.440;19.310;2024-01-30T00:26:01;102314.56;;;0.86;75.56
84853;BME280;75109;47.440;19.310;2024-01-30T00:26:34;102322.19;;;0.84;75.80
84853;BME280;75109;47.440;19.310;2024-01-30T00:27:07;102325.78;;;0.84;75.54
84853;BME280;75109;47.440;19.310;2024-01-30T00:27:40;102316.47;;;0.85;75.78
84853;BME280;75109;47.440;19.310;2024-01-30T00:28:12;102318.59;;;0.83;75.82
84853;BME280;75109;47.440;19.310;2024-01-30T00:28:44;102317.16;;;0.81;75.84
84853;BME280;75109;47.440;19.310;2024-01-30T00:29:17;102317.16;;;0.81;75.84
84853;BME280;75109;47.440;19.310;2024-01-30T00:29:51;102324.78;;;0.79;75.94
84853;BME280;75109;47.440;19.310;2024-01-30T00:30:23;102315.91;;;0.77;76.03
84853;BME280;75109;47.440;19.310;2024-01-30T00:30:55;102316.97;;;0.76;75.95
84853;BME280;75109;47.440;19.310;2024-01-30T00:31:28;102318.91;;;0.75;75.78
84853;BME280;75109;47.440;19.310;2024-01-30T00:32:00;102317.19;;;0.74;75.99
84853;BME280;75109;47.440;19.310;2024-01-30T00:32:32;102321.84;;;0.74;75.94
84853;BME280;75109;47.440;19.310;2024-01-30T00:33:04;102319.31;;;0.72;75.85
84853;BME280;75109;47.440;19.310;2024-01-30T00:33:36;102323.16;;;0.71;76.08
84853;BME280;75109;47.440;19.310;2024-01-30T00:34:08;102317.19;;;0.74;76.19
84853;BME280;75109;47.440;19.310;2024-01-30T00:34:41;102314.69;;;0.73;75.93
84853;BME280;75109;47.440;19.310;2024-01-30T00:35:13;102314.69;;;0.73;75.81
84853;BME280;75109;47.440;19.310;2024-01-30T00:35:45;102317.19;;;0.74;76.02
84853;BME280;75109;47.440;19.310;2024-01-30T00:36:18;102318.03;;;0.75;76.02
84853;BME280;75109;47.440;19.310;2024-01-30T00:36:50;102315.31;;;0.75;75.93
84853;BME280;75109;47.440;19.310;2024-01-30T00:37:22;102312.56;;;0.75;75.76
84853;BME280;75109;47.440;19.310;2024-01-30T00:37:55;102310.84;;;0.74;75.79
84853;BME280;75109;47.440;19.310;2024-01-30T00:38:27;102310.03;;;0.73;75.93
84853;BME280;75109;47.440;19.310;2024-01-30T00:38:59;102320.19;;;0.73;76.04
84853;BME280;75109;47.440;19.310;2024-01-30T00:39:31;102316.59;;;0.72;75.82
84853;BME280;75109;47.440;19.310;2024-01-30T00:40:04;102311.31;;;0.71;75.63
84853;BME280;75109;47.440;19.310;2024-01-30T00:40:37;102316.81;;;0.71;76.13
84853;BME280;75109;47.440;19.310;2024-01-30T00:41:10;102316.19;;;0.69;76.26
84853;BME280;75109;47.440;19.310;2024-01-30T00:41:43;102321.69;;;0.69;76.29
84853;BME280;75109;47.440;19.310;2024-01-30T00:42:15;102320.00;;;0.68;76.23
84853;BME280;75109;47.440;19.310;2024-01-30T00:42:47;102313.88;;;0.66;76.33
84853;BME280;75109;47.440;19.310;2024-01-30T00:43:19;102314.97;;;0.65;76.06
84853;BME280;75109;47.440;19.310;2024-01-30T00:43:53;102317.25;;;0.68;75.97
84853;BME280;75109;47.440;19.310;2024-01-30T00:44:25;102319.56;;;0.71;76.06
84853;BME280;75109;47.440;19.310;2024-01-30T00:44:57;102324.19;;;0.70;76.07
84853;BME280;75109;47.440;19.310;2024-01-30T00:45:29;102318.94;;;0.69;76.21
84853;BME280;75109;47.440;19.310;2024-01-30T00:46:01;102316.44;;;0.67;76.13
84853;BME280;75109;47.440;19.310;2024-01-30T00:46:33;102315.34;;;0.68;76.34
84853;BME280;75109;47.440;19.310;2024-01-30T00:47:05;102317.03;;;0.69;75.95
84853;BME280;75109;47.440;19.310;2024-01-30T00:47:38;102321.06;;;0.67;76.13
84853;BME280;75109;47.440;19.310;2024-01-30T00:48:10;102320.59;;;0.70;75.88
84853;BME280;75109;47.440;19.310;2024-01-30T00:48:42;102322.97;;;0.66;75.92
84853;BME280;75109;47.440;19.310;2024-01-30T00:49:14;102319.16;;;0.67;76.03
84853;BME280;75109;47.440;19.310;2024-01-30T00:49:47;102324.44;;;0.69;75.93
84853;BME280;75109;47.440;19.310;2024-01-30T00:50:19;102324.44;;;0.69;75.83
84853;BME280;75109;47.440;19.310;2024-01-30T00:50:51;102322.72;;;0.68;76.13
84853;BME280;75109;47.440;19.310;2024-01-30T00:51:23;102323.81;;;0.67;76.22
84853;BME280;75109;47.440;19.310;2024-01-30T00:51:55;102322.13;;;0.66;76.09
84853;BME280;75109;47.440;19.310;2024-01-30T00:52:27;102324.66;;;0.67;76.09
84853;BME280;75109;47.440;19.310;2024-01-30T00:52:59;102324.66;;;0.67;75.82
84853;BME280;75109;47.440;19.310;2024-01-30T00:53:31;102323.19;;;0.65;76.38
84853;BME280;75109;47.440;19.310;2024-01-30T00:54:04;102320.22;;;0.66;75.89
84853;BME280;75109;47.440;19.310;2024-01-30T00:54:36;102325.72;;;0.66;76.19
84853;BME280;75109;47.440;19.310;2024-01-30T00:55:08;102321.91;;;0.67;76.12
84853;BME280;75109;47.440;19.310;2024-01-30T00:55:41;102318.94;;;0.69;75.87
84853;BME280;75109;47.440;19.310;2024-01-30T00:56:13;102319.78;;;0.69;76.05
84853;BME280;75109;47.440;19.310;2024-01-30T00:56:46;102321.47;;;0.70;76.08
84853;BME280;75109;47.440;19.310;2024-01-30T00:57:19;102322.72;;;0.68;75.83
84853;BME280;75109;47.440;19.310;2024-01-30T00:57:51;102327.41;;;0.67;76.25
84853;BME280;75109;47.440;19.310;2024-01-30T00:58:23;102323.81;;;0.67;76.36
84853;BME280;75109;47.440;19.310;2024-01-30T00:58:55;102320.22;;;0.66;76.28
84853;BME280;75109;47.440;19.310;2024-01-30T00:59:28;102320.44;;;0.65;76.28
84853;BME280;75109;47.440;19.310;2024-01-30T01:00:00;102319.38;;;0.66;76.49
84853;BME280;75109;47.440;19.310;2024-01-30T01:00:32;102319.38;;;0.66;76.60
84853;BME280;75109;47.440;19.310;2024-01-30T01:01:04;102315.81;;;0.65;76.39
84853;BME280;75109;47.440;19.310;2024-01-30T01:01:37;102317.25;;;0.68;76.36
84853;BME280;75109;47.440;19.310;2024-01-30T01:02:09;102313.06;;;0.65;76.49
84853;BME280;75109;47.440;19.310;2024-01-30T01:02:41;102315.81;;;0.65;76.37
84853;BME280;75109;47.440;19.310;2024-01-30T01:03:13;102323.41;;;0.63;76.62
84853;BME280;75109;47.440;19.310;2024-01-30T01:03:46;102316.84;;;0.64;76.41
84853;BME280;75109;47.440;19.310;2024-01-30T01:04:18;102318.31;;;0.67;76.13
84853;BME280;75109;47.440;19.310;2024-01-30T01:04:50;102320.44;;;0.65;76.47
84853;BME280;75109;47.440;19.310;2024-01-30T01:05:22;102318.56;;;0.65;76.12
84853;BME280;75109;47.440;19.310;2024-01-30T01:05:54;102325.31;;;0.63;76.22
84853;BME280;75109;47.440;19.310;2024-01-30T01:06:26;102322.34;;;0.64;76.41
84853;BME280;75109;47.440;19.310;2024-01-30T01:06:58;102320.44;;;0.65;76.44
84853;BME280;75109;47.440;19.310;2024-01-30T01:07:30;102324.84;;;0.66;76.44
84853;BME280;75109;47.440;19.310;2024-01-30T01:08:03;102321.91;;;0.67;76.35
84853;BME280;75109;47.440;19.310;2024-01-30T01:08:35;102314.97;;;0.65;76.52
84853;BME280;75109;47.440;19.310;2024-01-30T01:09:07;102318.56;;;0.65;76.37
84853;BME280;75109;47.440;19.310;2024-01-30T01:09:39;102325.94;;;0.65;76.21
84853;BME280;75109;47.440;19.310;2024-01-30T01:10:11;102325.94;;;0.65;76.43
84853;BME280;75109;47.440;19.310;2024-01-30T01:10:45;102317.69;;;0.65;76.35
84853;BME280;75109;47.440;19.310;2024-01-30T01:11:17;102318.56;;;0.65;76.52
84853;BME280;75109;47.440;19.310;2024-01-30T01:11:51;102316.84;;;0.64;76.60
84853;BME280;75109;47.440;19.310;2024-01-30T01:12:23;102317.09;;;0.63;76.27
84853;BME280;75109;47.440;19.310;2024-01-30T01:12:55;102317.94;;;0.63;76.41
84853;BME280;75109;47.440;19.310;2024-01-30T01:13:27;102318.78;;;0.64;76.30
84853;BME280;75109;47.440;19.310;2024-01-30T01:13:59;102324.28;;;0.64;76.51
84853;BME280;75109;47.440;19.310;2024-01-30T01:14:31;102316.22;;;0.62;76.48
84853;BME280;75109;47.440;19.310;2024-01-30T01:15:04;102316.84;;;0.64;76.42
84853;BME280;75109;47.440;19.310;2024-01-30T01:15:36;102315.19;;;0.63;76.47
84853;BME280;75109;47.440;19.310;2024-01-30T01:16:09;102312.44;;;0.63;76.38
84853;BME280;75109;47.440;19.310;2024-01-30T01:16:41;102320.69;;;0.63;76.29
84853;BME280;75109;47.440;19.310;2024-01-30T01:17:13;102317.09;;;0.63;76.31
84853;BME280;75109;47.440;19.310;2024-01-30T01:17:45;102309.94;;;0.62;76.25
84853;BME280;75109;47.440;19.310;2024-01-30T01:18:17;102317.31;;;0.61;76.42
84853;BME280;75109;47.440;19.310;2024-01-30T01:18:49;102314.78;;;0.60;76.37
84853;BME280;75109;47.440;19.310;2024-01-30T01:19:21;102319.44;;;0.59;76.08
84853;BME280;75109;47.440;19.310;2024-01-30T01:19:53;102313.31;;;0.57;76.34
84853;BME280;75109;47.440;19.310;2024-01-30T01:20:25;102318.59;;;0.59;76.51
84853;BME280;75109;47.440;19.310;2024-01-30T01:20:57;102311.44;;;0.58;76.50
84853;BME280;75109;47.440;19.310;2024-01-30T01:21:29;102316.31;;;0.56;76.32
84853;BME280;75109;47.440;19.310;2024-01-30T01:22:02;102319.03;;;0.56;76.42
84853;BME280;75109;47.440;19.310;2024-01-30T01:22:35;102308.06;;;0.56;76.33
84853;BME280;75109;47.440;19.310;2024-01-30T01:23:07;102318.81;;;0.57;76.32
84853;BME280;75109;47.440;19.310;2024-01-30T01:23:39;102309.50;;;0.58;76.09
84853;BME280;75109;47.440;19.310;2024-01-30T01:24:11;102316.06;;;0.57;76.24
84853;BME280;75109;47.440;19.310;2024-01-30T01:24:43;102316.94;;;0.58;76.29
84853;BME280;75109;47.440;19.310;2024-01-30T01:25:16;102313.31;;;0.57;76.34
84853;BME280;75109;47.440;19.310;2024-01-30T01:25:48;102321.78;;;0.56;76.20
84853;BME280;75109;47.440;19.310;2024-01-30T01:26:20;102326.44;;;0.55;76.16
84853;BME280;75109;47.440;19.310;2024-01-30T01:26:54;102322.84;;;0.55;76.23
84853;BME280;75109;47.440;19.310;2024-01-30T01:27:27;102320.94;;;0.55;76.11
84853;BME280;75109;47.440;19.310;2024-01-30T01:27:59;102322.84;;;0.55;76.23
84853;BME280;75109;47.440;19.310;2024-01-30T01:28:33;102311.84;;;0.55;76.33
84853;BME280;75109;47.440;19.310;2024-01-30T01:29:06;102318.44;;;0.54;76.38
84853;BME280;75109;47.440;19.310;2024-01-30T01:29:42;102318.03;;;0.50;76.62
84853;BME280;75109;47.440;19.310;2024-01-30T01:30:16;102319.72;;;0.51;76.56
84853;BME280;75109;47.440;19.310;2024-01-30T01:30:53;102325.19;;;0.51;76.36
84853;BME280;75109;47.440;19.310;2024-01-30T01:31:25;102314.22;;;0.51;76.49
84853;BME280;75109;47.440;19.310;2024-01-30T01:32:01;102320.56;;;0.52;76.72
84853;BME280;75109;47.440;19.310;2024-01-30T01:32:33;102316.97;;;0.51;76.64
84853;BME280;75109;47.440;19.310;2024-01-30T01:33:05;102313.75;;;0.54;76.60
84853;BME280;75109;47.440;19.310;2024-01-30T01:33:38;102305.53;;;0.54;76.41
84853;BME280;75109;47.440;19.310;2024-01-30T01:34:10;102309.13;;;0.55;76.36
84853;BME280;75109;47.440;19.310;2024-01-30T01:34:43;102316.31;;;0.56;76.36
84853;BME280;75109;47.440;19.310;2024-01-30T01:35:15;102305.31;;;0.56;76.25
84853;BME280;75109;47.440;19.310;2024-01-30T01:35:47;102311.00;;;0.54;76.48
84853;BME280;75109;47.440;19.310;2024-01-30T01:36:19;102303.00;;;0.53;76.51
84853;BME280;75109;47.440;19.310;2024-01-30T01:36:52;102311.47;;;0.51;76.40
84853;BME280;75109;47.440;19.310;2024-01-30T01:37:27;102303.47;;;0.50;76.63
84853;BME280;75109;47.440;19.310;2024-01-30T01:37:59;102316.56;;;0.48;76.68
84853;BME280;75109;47.440;19.310;2024-01-30T01:38:32;102311.69;;;0.50;76.62
84853;BME280;75109;47.440;19.310;2024-01-30T01:39:04;102308.09;;;0.49;76.47
84853;BME280;75109;47.440;19.310;2024-01-30T01:39:36;102305.34;;;0.49;76.70
84853;BME280;75109;47.440;19.310;2024-01-30T01:40:09;102315.50;;;0.49;76.78
84853;BME280;75109;47.440;19.310;2024-01-30T01:40:41;102307.25;;;0.49;76.59
84853;BME280;75109;47.440;19.310;2024-01-30T01:41:16;102316.72;;;0.53;76.83
84853;BME280;75109;47.440;19.310;2024-01-30T01:41:48;102307.66;;;0.52;76.71
84853;BME280;75109;47.440;19.310;2024-01-30T01:42:21;102307.06;;;0.50;76.56
84853;BME280;75109;47.440;19.310;2024-01-30T01:42:55;102309.34;;;0.53;76.88
84853;BME280;75109;47.440;19.310;2024-01-30T01:43:27;102303.22;;;0.51;76.55
84853;BME280;75109;47.440;19.310;2024-01-30T01:43:59;102306.81;;;0.52;76.61
84853;BME280;75109;47.440;19.310;2024-01-30T01:44:32;102304.91;;;0.52;76.47
84853;BME280;75109;47.440;19.310;2024-01-30T01:45:04;102303.84;;;0.53;76.92
84853;BME280;75109;47.440;19.310;2024-01-30T01:45:37;102305.75;;;0.53;76.63
84853;BME280;75109;47.440;19.310;2024-01-30T01:46:09;102297.09;;;0.56;76.61
84853;BME280;75109;47.440;19.310;2024-01-30T01:46:42;102308.06;;;0.56;76.88
84853;BME280;75109;47.440;19.310;2024-01-30T01:47:15;102310.59;;;0.57;76.51
84853;BME280;75109;47.440;19.310;2024-01-30T01:47:50;102304.25;;;0.57;76.67
84853;BME280;75109;47.440;19.310;2024-01-30T01:48:23;102301.72;;;0.55;76.70
84853;BME280;75109;47.440;19.310;2024-01-30T01:48:55;102300.88;;;0.55;76.88
84853;BME280;75109;47.440;19.310;2024-01-30T01:49:28;102303.84;;;0.53;76.52
84853;BME280;75109;47.440;19.310;2024-01-30T01:50:01;102312.94;;;0.54;76.57
84853;BME280;75109;47.440;19.310;2024-01-30T01:50:33;102302.16;;;0.52;76.83
84853;BME280;75109;47.440;19.310;2024-01-30T01:51:06;102305.75;;;0.53;76.53
84853;BME280;75109;47.440;19.310;2024-01-30T01:51:39;102313.38;;;0.51;76.53
84853;BME280;75109;47.440;19.310;2024-01-30T01:52:13;102309.81;;;0.50;76.46
84853;BME280;75109;47.440;19.310;2024-01-30T01:52:47;102301.75;;;0.49;76.93
84853;BME280;75109;47.440;19.310;2024-01-30T01:53:20;102303.69;;;0.48;76.50
84853;BME280;75109;47.440;19.310;2024-01-30T01:53:53;102311.94;;;0.48;76.87
84853;BME280;75109;47.440;19.310;2024-01-30T01:54:26;102304.50;;;0.49;76.60
84853;BME280;75109;47.440;19.310;2024-01-30T01:55:00;102300.72;;;0.50;76.55
84853;BME280;75109;47.440;19.310;2024-01-30T01:55:32;102302.63;;;0.49;76.49
84853;BME280;75109;47.440;19.310;2024-01-30T01:56:06;102298.19;;;0.48;76.60
84853;BME280;75109;47.440;19.310;2024-01-30T01:56:38;102301.75;;;0.49;76.54
84853;BME280;75109;47.440;19.310;2024-01-30T01:57:10;102297.34;;;0.48;76.73
84853;BME280;75109;47.440;19.310;2024-01-30T01:57:44;102306.22;;;0.50;76.45
84853;BME280;75109;47.440;19.310;2024-01-30T01:58:17;102299.88;;;0.49;76.50
84853;BME280;75109;47.440;19.310;2024-01-30T01:58:50;102305.59;;;0.48;76.83
84853;BME280;75109;47.440;19.310;2024-01-30T01:59:23;102296.72;;;0.46;76.57
84853;BME280;75109;47.440;19.310;2024-01-30T01:59:56;102298.41;;;0.47;76.83
84853;BME280;75109;47.440;19.310;2024-01-30T02:00:28;102303.28;;;0.45;76.87
84853;BME280;75109;47.440;19.310;2024-01-30T02:01:02;102298.63;;;0.45;76.76
84853;BME280;75109;47.440;19.310;2024-01-30T02:01:36;102298.00;;;0.43;76.81
84853;BME280;75109;47.440;19.310;2024-01-30T02:02:11;102306.25;;;0.43;76.84
84853;BME280;75109;47.440;19.310;2024-01-30T02:02:45;102298.00;;;0.43;76.87
84853;BME280;75109;47.440;19.310;2024-01-30T02:03:18;102298.63;;;0.45;76.50
84853;BME280;75109;47.440;19.310;2024-01-30T02:03:53;102294.84;;;0.46;76.65
84853;BME280;75109;47.440;19.310;2024-01-30T02:04:25;102298.41;;;0.47;76.82
84853;BME280;75109;47.440;19.310;2024-01-30T02:04:57;102295.88;;;0.45;76.70
84853;BME280;75109;47.440;19.310;2024-01-30T02:05:30;102294.84;;;0.46;76.75
84853;BME280;75109;47.440;19.310;2024-01-30T02:06:04;102290.16;;;0.47;76.80
84853;BME280;75109;47.440;19.310;2024-01-30T02:06:37;102294.84;;;0.46;76.53
84853;BME280;75109;47.440;19.310;2024-01-30T02:07:10;102294.00;;;0.46;76.76
84853;BME280;75109;47.440;19.310;2024-01-30T02:07:43;102297.59;;;0.46;76.52
84853;BME280;75109;47.440;19.310;2024-01-30T02:08:16;102295.88;;;0.45;76.93
84853;BME280;75109;47.440;19.310;2024-01-30T02:08:48;102300.75;;;0.43;76.87
84853;BME280;75109;47.440;19.310;2024-01-30T02:09:20;102299.28;;;0.41;76.94
84853;BME280;75109;47.440;19.310;2024-01-30T02:09:53;102294.41;;;0.43;76.83
84853;BME280;75109;47.440;19.310;2024-01-30T02:10:25;102293.78;;;0.41;76.97
84853;BME280;75109;47.440;19.310;2024-01-30T02:10:58;102300.97;;;0.42;76.92
84853;BME280;75109;47.440;19.310;2024-01-30T02:11:30;102296.34;;;0.42;77.05
84853;BME280;75109;47.440;19.310;2024-01-30T02:12:05;102304.78;;;0.41;76.96
84853;BME280;75109;47.440;19.310;2024-01-30T02:12:37;102289.16;;;0.41;77.14
84853;BME280;75109;47.440;19.310;2024-01-30T02:13:11;102289.78;;;0.43;76.95
84853;BME280;75109;47.440;19.310;2024-01-30T02:13:43;102298.84;;;0.44;77.33
84853;BME280;75109;47.440;19.310;2024-01-30T02:14:15;102294.22;;;0.44;77.09
84853;BME280;75109;47.440;19.310;2024-01-30T02:14:48;102296.53;;;0.41;77.16
84853;BME280;75109;47.440;19.310;2024-01-30T02:15:20;102295.50;;;0.42;76.96
84853;BME280;75109;47.440;19.310;2024-01-30T02:15:52;102289.78;;;0.43;76.91
84853;BME280;75109;47.440;19.310;2024-01-30T02:16:25;102290.63;;;0.44;77.23
84853;BME280;75109;47.440;19.310;2024-01-30T02:16:56;102287.47;;;0.40;76.94
84853;BME280;75109;47.440;19.310;2024-01-30T02:17:29;102299.28;;;0.41;76.92
84853;BME280;75109;47.440;19.310;2024-01-30T02:18:01;102288.31;;;0.41;77.24
84853;BME280;75109;47.440;19.310;2024-01-30T02:18:33;102302.03;;;0.41;76.90
84853;BME280;75109;47.440;19.310;2024-01-30T02:19:05;102286.41;;;0.41;77.13
84853;BME280;75109;47.440;19.310;2024-01-30T02:19:38;102294.63;;;0.41;77.15
84853;BME280;75109;47.440;19.310;2024-01-30T02:20:11;102290.84;;;0.42;76.98
84853;BME280;75109;47.440;19.310;2024-01-30T02:20:43;102293.59;;;0.42;76.57
84853;BME280;75109;47.440;19.310;2024-01-30T02:21:18;102302.44;;;0.44;76.45
84853;BME280;75109;47.440;19.310;2024-01-30T02:21:50;102302.03;;;0.41;76.59
84853;BME280;75109;47.440;19.310;2024-01-30T02:22:23;102293.78;;;0.41;76.67
84853;BME280;75109;47.440;19.310;2024-01-30T02:22:56;102302.03;;;0.41;76.78
84853;BME280;75109;47.440;19.310;2024-01-30T02:23:30;102301.63;;;0.37;76.60
84853;BME280;75109;47.440;19.310;2024-01-30T02:24:05;102296.16;;;0.37;76.55
84853;BME280;75109;47.440;19.310;2024-01-30T02:24:37;102299.97;;;0.36;76.75
84853;BME280;75109;47.440;19.310;2024-01-30T02:25:09;102299.13;;;0.36;76.38
84853;BME280;75109;47.440;19.310;2024-01-30T02:25:42;102305.47;;;0.36;76.57
84853;BME280;75109;47.440;19.310;2024-01-30T02:26:17;102285.16;;;0.37;76.52
84853;BME280;75109;47.440;19.310;2024-01-30T02:26:50;102298.06;;;0.37;76.53
84853;BME280;75109;47.440;19.310;2024-01-30T02:27:22;102298.06;;;0.37;76.50
84853;BME280;75109;47.440;19.310;2024-01-30T02:27:54;102303.56;;;0.37;76.24
84853;BME280;75109;47.440;19.310;2024-01-30T02:28:26;102297.22;;;0.36;76.39
84853;BME280;75109;47.440;19.310;2024-01-30T02:28:59;102300.81;;;0.37;76.32
84853;BME280;75109;47.440;19.310;2024-01-30T02:29:31;102303.56;;;0.37;76.44
84853;BME280;75109;47.440;19.310;2024-01-30T02:30:04;102298.28;;;0.35;76.32
84853;BME280;75109;47.440;19.310;2024-01-30T02:30:36;102304.84;;;0.34;76.24
84853;BME280;75109;47.440;19.310;2024-01-30T02:31:08;102302.94;;;0.35;76.39
84853;BME280;75109;47.440;19.310;2024-01-30T02:31:40;102297.66;;;0.33;76.46
84853;BME280;75109;47.440;19.310;2024-01-30T02:32:13;102301.25;;;0.34;76.37
84853;BME280;75109;47.440;19.310;2024-01-30T02:32:45;102306.97;;;0.32;76.30
84853;BME280;75109;47.440;19.310;2024-01-30T02:33:17;102305.06;;;0.33;76.25
84853;BME280;75109;47.440;19.310;2024-01-30T02:33:49;102301.91;;;0.29;76.61
84853;BME280;75109;47.440;19.310;2024-01-30T02:34:21;102301.91;;;0.29;76.60
84853;BME280;75109;47.440;19.310;2024-01-30T02:34:54;102301.09;;;0.29;76.36
84853;BME280;75109;47.440;19.310;2024-01-30T02:35:26;102301.50;;;0.26;76.62
84853;BME280;75109;47.440;19.310;2024-01-30T02:35:58;102302.59;;;0.25;76.55
84853;BME280;75109;47.440;19.310;2024-01-30T02:36:31;102300.47;;;0.27;76.60
84853;BME280;75109;47.440;19.310;2024-01-30T02:37:04;102301.28;;;0.27;76.46
84853;BME280;75109;47.440;19.310;2024-01-30T02:37:36;102312.06;;;0.29;76.10
84853;BME280;75109;47.440;19.310;2024-01-30T02:38:08;102301.50;;;0.26;76.26
84853;BME280;75109;47.440;19.310;2024-01-30T02:38:40;102303.19;;;0.27;76.37
84853;BME280;75109;47.440;19.310;2024-01-30T02:39:12;102304.03;;;0.27;76.30
84853;BME280;75109;47.440;19.310;2024-01-30T02:39:44;102308.06;;;0.25;76.12
84853;BME280;75109;47.440;19.310;2024-01-30T02:40:17;102299.84;;;0.25;76.23
84853;BME280;75109;47.440;19.310;2024-01-30T02:40:49;102307.44;;;0.23;76.48
84853;BME280;75109;47.440;19.310;2024-01-30T02:41:21;102303.84;;;0.22;76.50
84853;BME280;75109;47.440;19.310;2024-01-30T02:41:53;102310.41;;;0.21;76.45
84853;BME280;75109;47.440;19.310;2024-01-30T02:42:26;102305.75;;;0.22;76.75
84853;BME280;75109;47.440;19.310;2024-01-30T02:42:59;102307.44;;;0.23;76.66
84853;BME280;75109;47.440;19.310;2024-01-30T02:43:31;102300.25;;;0.22;76.68
84853;BME280;75109;47.440;19.310;2024-01-30T02:44:04;102311.25;;;0.22;76.73
84853;BME280;75109;47.440;19.310;2024-01-30T02:44:36;102305.75;;;0.22;76.89
84853;BME280;75109;47.440;19.310;2024-01-30T02:45:10;102301.13;;;0.22;76.99
84853;BME280;75109;47.440;19.310;2024-01-30T02:45:42;102307.44;;;0.23;76.52
84853;BME280;75109;47.440;19.310;2024-01-30T02:46:14;102298.59;;;0.21;76.90
84853;BME280;75109;47.440;19.310;2024-01-30T02:46:47;102303.25;;;0.20;76.75
84853;BME280;75109;47.440;19.310;2024-01-30T02:47:19;102296.91;;;0.20;76.98
84853;BME280;75109;47.440;19.310;2024-01-30T02:47:51;102301.56;;;0.19;77.01
84853;BME280;75109;47.440;19.310;2024-01-30T02:48:23;102295.47;;;0.17;76.91
84853;BME280;75109;47.440;19.310;2024-01-30T02:48:55;102306.63;;;0.16;77.05
84853;BME280;75109;47.440;19.310;2024-01-30T02:49:27;102307.72;;;0.15;76.86
84853;BME280;75109;47.440;19.310;2024-01-30T02:49:59;102303.88;;;0.16;76.98
84853;BME280;75109;47.440;19.310;2024-01-30T02:50:31;102306.63;;;0.16;76.66